Time;durP1;ratioP1;P1;durP2;ratioP2;P2;SDS_P1;SDS_P2;PMS_P1;PMS_P2;Temp;Humidity;BMP_temperature;BMP_pressure;BME280_temperature;BME280_humidity;BME280_pressure;Samples;Min_cycle;Max_cycle;Signal;HPM_P1;HPM_P2
2022/09/06 00:01:41;;;;;;;;;5.33;5.33;;;;;20.57;73.72;101033.03;5038534;28;45339;-77
2022/09/06 00:04:07;;;;;;;;;5.67;5.33;;;;;20.57;73.26;101041.13;5038678;28;45425;-78
2022/09/06 00:06:32;;;;;;;;;2.33;2.33;;;;;20.56;73.77;101040.28;5036963;28;46114;-78
2022/09/06 00:08:58;;;;;;;;;5.00;5.00;;;;;20.57;73.62;101051.94;5038315;28;45518;-78
2022/09/06 00:11:24;;;;;;;;;6.33;5.33;;;;;20.54;72.98;101053.22;5038448;28;45345;-77
2022/09/06 00:13:49;;;;;;;;;5.00;5.00;;;;;20.44;73.57;101036.75;5054149;28;45401;-78
2022/09/06 00:16:18;;;;;;;;;5.00;5.00;;;;;20.48;73.50;101054.16;5036271;28;45751;-78
2022/09/06 00:18:45;;;;;;;;;1.00;1.00;;;;;20.48;73.43;101054.16;5038451;28;45464;-77
2022/09/06 00:21:24;;;;;;;;;5.00;4.00;;;;;20.46;73.62;101058.13;5038504;28;45318;-77
2022/09/06 00:23:51;;;;;;;;;4.33;4.00;;;;;20.38;73.38;101043.09;5037418;28;45370;-78
2022/09/06 00:26:17;;;;;;;;;4.33;4.33;;;;;20.38;73.80;101051.22;5037306;28;46384;-78
2022/09/06 00:28:43;;;;;;;;;3.33;3.33;;;;;20.29;73.95;101053.41;5037152;28;48565;-78
2022/09/06 00:31:13;;;;;;;;;5.00;4.33;;;;;20.25;73.65;101044.97;5053857;28;45286;-77
2022/09/06 00:33:39;;;;;;;;;5.33;5.00;;;;;20.24;74.02;101047.88;5038879;28;45340;-78
2022/09/06 00:36:06;;;;;;;;;5.00;5.00;;;;;20.24;73.84;101054.13;5038299;28;45474;-78
2022/09/06 00:38:31;;;;;;;;;5.00;3.67;;;;;20.24;74.11;101047.88;5038000;28;45469;-77
2022/09/06 00:40:57;;;;;;;;;6.00;6.00;;;;;20.22;74.48;101047.28;5036875;28;45350;-77
2022/09/06 00:43:22;;;;;;;;;4.33;3.00;;;;;20.17;74.33;101043.41;5038607;28;45344;-78
2022/09/06 00:45:48;;;;;;;;;6.33;6.00;;;;;20.15;74.78;101040.16;5038631;28;45251;-78
2022/09/06 00:48:15;;;;;;;;;4.67;4.00;;;;;20.19;74.70;101051.28;5038073;28;45495;-77
2022/09/06 00:50:42;;;;;;;;;5.00;5.00;;;;;20.21;74.47;101042.97;5037935;28;45411;-77
2022/09/06 00:53:07;;;;;;;;;6.00;5.67;;;;;20.16;74.87;101049.88;5038081;28;45307;-77
2022/09/06 00:55:33;;;;;;;;;8.00;8.00;;;;;20.20;74.71;101058.31;5037847;28;45476;-78
2022/09/06 00:57:58;;;;;;;;;6.33;6.33;;;;;20.17;74.81;101045.28;5037810;28;45317;-77
2022/09/06 01:00:24;;;;;;;;;6.00;6.00;;;;;20.17;74.77;101059.59;5038149;28;45317;-77
2022/09/06 01:02:49;;;;;;;;;5.00;5.00;;;;;20.12;75.06;101053.25;5036914;28;45471;-78
2022/09/06 01:05:15;;;;;;;;;6.33;6.33;;;;;20.13;74.61;101050.34;5053640;28;47452;-78
2022/09/06 01:07:58;;;;;;;;;5.67;5.00;;;;;20.12;74.69;101047.88;5036869;28;47167;-78
2022/09/06 01:10:39;;;;;;;;;5.00;5.00;;;;;20.16;75.30;101062.53;5038193;28;45318;-78
2022/09/06 01:13:39;;;;;;;;;6.00;5.33;;;;;20.12;75.10;101054.09;5038331;27;45379;-78
2022/09/06 01:16:11;;;;;;;;;6.00;6.00;;;;;20.12;75.02;101062.19;5044119;27;47327;-78
2022/09/06 01:19:27;;;;;;;;;5.00;5.00;;;;;20.10;75.50;101076.94;5038027;28;46428;-78
2022/09/06 01:22:19;;;;;;;;;5.33;5.33;;;;;20.06;75.57;101069.31;5047186;28;45416;-78
2022/09/06 01:25:00;;;;;;;;;4.67;4.67;;;;;20.06;75.40;101057.72;5038121;28;45360;-78
2022/09/06 01:27:50;;;;;;;;;6.67;6.67;;;;;20.06;75.73;101074.69;5038117;28;45259;-78
2022/09/06 01:30:18;;;;;;;;;6.33;6.00;;;;;20.00;75.84;101064.81;5036268;28;47485;-78
2022/09/06 01:33:02;;;;;;;;;6.00;6.00;;;;;20.06;75.61;101071.19;5037982;28;45391;-78
2022/09/06 01:35:36;;;;;;;;;7.00;7.00;;;;;20.05;75.58;101072.22;5036497;28;45350;-78
2022/09/06 01:38:04;;;;;;;;;6.00;5.00;;;;;20.03;75.94;101072.47;5038011;28;45392;-78
2022/09/06 01:40:35;;;;;;;;;6.00;6.00;;;;;20.01;76.12;101065.66;5036724;28;47236;-78
2022/09/06 01:43:02;;;;;;;;;8.33;8.33;;;;;19.99;76.24;101062.34;5037753;28;45311;-78
2022/09/06 01:45:59;;;;;;;;;5.67;5.33;;;;;19.98;76.59;101071.47;5053581;27;45395;-78
2022/09/06 01:48:46;;;;;;;;;6.33;6.33;;;;;20.06;76.72;101076.59;5053215;28;46353;-78
2022/09/06 01:51:18;;;;;;;;;7.67;6.67;;;;;20.04;76.48;101071.44;5037671;28;46201;-78
2022/09/06 01:53:58;;;;;;;;;4.67;4.67;;;;;20.06;76.44;101074.69;5036333;28;45264;-78
2022/09/06 01:56:59;;;;;;;;;7.00;5.67;;;;;20.02;76.64;101073.53;5037905;28;45379;-78
2022/09/06 01:59:53;;;;;;;;;7.67;7.67;;;;;20.00;77.12;101078.31;5037343;28;45263;-78
2022/09/06 02:02:34;;;;;;;;;10.33;9.00;;;;;19.96;77.01;101073.59;5037852;28;45522;-78
2022/09/06 02:05:05;;;;;;;;;5.00;5.00;;;;;19.96;76.70;101076.28;5052855;28;45603;-78
2022/09/06 02:07:34;;;;;;;;;6.67;6.67;;;;;19.92;76.73;101063.28;5036505;28;45310;-78
2022/09/06 02:10:17;;;;;;;;;7.00;7.00;;;;;19.92;76.70;101070.53;5053138;28;46228;-78
2022/09/06 02:12:48;;;;;;;;;6.33;6.33;;;;;19.85;76.61;101062.53;5037673;28;45485;-77
2022/09/06 02:15:21;;;;;;;;;7.00;7.00;;;;;19.86;77.24;101061.47;5037685;28;45338;-77
2022/09/06 02:17:55;;;;;;;;;6.67;6.67;;;;;19.84;76.78;101070.84;5037200;28;45401;-78
2022/09/06 02:20:25;;;;;;;;;8.00;8.00;;;;;19.82;77.08;101068.41;5052596;28;46097;-78
2022/09/06 02:22:55;;;;;;;;;7.00;7.00;;;;;19.77;77.37;101055.59;5037018;28;45449;-78
2022/09/06 02:25:25;;;;;;;;;7.33;6.00;;;;;19.77;76.99;101066.38;5036042;28;45969;-78
2022/09/06 02:27:51;;;;;;;;;6.33;6.33;;;;;19.73;77.25;101054.41;5053021;28;45318;-78
2022/09/06 02:30:16;;;;;;;;;8.00;8.00;;;;;19.68;77.24;101051.56;5037552;28;45423;-78
2022/09/06 02:32:49;;;;;;;;;9.00;9.00;;;;;19.70;77.97;101052.16;5037075;28;45495;-78
2022/09/06 02:35:15;;;;;;;;;6.33;6.33;;;;;19.74;77.71;101052.50;5035780;28;45756;-78
2022/09/06 02:37:42;;;;;;;;;8.00;8.00;;;;;19.74;77.58;101058.75;5036831;28;45327;-78
2022/09/06 02:40:09;;;;;;;;;7.67;7.67;;;;;19.66;77.75;101042.88;5034769;28;46447;-78
2022/09/06 02:42:34;;;;;;;;;10.00;10.00;;;;;19.70;77.51;101044.06;5052723;27;47260;-78
2022/09/06 02:44:59;;;;;;;;;6.00;6.00;;;;;19.71;77.65;101043.03;5052260;28;45333;-78
2022/09/06 02:47:25;;;;;;;;;7.00;7.00;;;;;19.65;77.69;101043.94;5035936;28;45377;-78
2022/09/06 02:49:50;;;;;;;;;6.00;6.00;;;;;19.65;77.83;101042.06;5035115;28;47501;-78
2022/09/06 02:52:16;;;;;;;;;7.67;7.67;;;;;19.60;77.98;101028.44;5037029;28;45502;-78
2022/09/06 02:54:41;;;;;;;;;9.00;8.33;;;;;19.65;77.99;101028.59;5052675;28;45601;-78
2022/09/06 02:57:07;;;;;;;;;9.67;9.33;;;;;19.58;78.21;101024.31;5036065;28;45443;-78
2022/09/06 02:59:32;;;;;;;;;8.33;8.33;;;;;19.59;77.98;101023.25;5035641;28;46249;-77
2022/09/06 03:01:57;;;;;;;;;9.67;8.00;;;;;19.55;77.84;101034.50;5052041;28;48455;-78
2022/09/06 03:04:23;;;;;;;;;8.00;7.00;;;;;19.53;78.06;101038.47;5052525;28;45586;-78
2022/09/06 03:06:48;;;;;;;;;8.67;7.33;;;;;19.54;77.98;101037.41;5037284;28;45413;-77
2022/09/06 03:09:13;;;;;;;;;7.67;7.33;;;;;19.58;78.07;101043.19;5051778;28;47247;-78
2022/09/06 03:11:39;;;;;;;;;8.33;8.00;;;;;19.51;77.72;101035.19;5036628;27;45458;-78
2022/09/06 03:14:04;;;;;;;;;8.33;8.33;;;;;19.50;78.12;101036.25;5035502;28;45340;-78
2022/09/06 03:16:30;;;;;;;;;8.00;8.00;;;;;19.45;78.16;101036.91;5052122;28;45418;-78
2022/09/06 03:18:55;;;;;;;;;6.00;6.00;;;;;19.40;78.05;101031.41;5034590;28;46017;-78
2022/09/06 03:21:20;;;;;;;;;6.00;6.00;;;;;19.43;78.28;101041.72;5035758;28;46289;-77
2022/09/06 03:23:46;;;;;;;;;10.00;9.00;;;;;19.38;77.73;101045.09;5036142;28;45346;-77
2022/09/06 03:26:12;;;;;;;;;9.67;9.67;;;;;19.38;78.00;101034.31;5034945;28;45465;-78
2022/09/06 03:28:37;;;;;;;;;10.00;8.67;;;;;19.27;78.04;101024.28;5034693;28;46401;-78
2022/09/06 03:31:03;;;;;;;;;9.67;8.67;;;;;19.22;78.17;101038.44;5036197;28;45237;-78
2022/09/06 03:33:28;;;;;;;;;9.33;9.33;;;;;19.24;78.20;101054.41;5051782;27;45315;-78
2022/09/06 03:35:57;;;;;;;;;7.67;7.67;;;;;19.21;78.36;101054.84;5035847;28;45216;-78
2022/09/06 03:38:23;;;;;;;;;7.33;7.33;;;;;19.24;78.42;101062.47;5035651;28;45450;-78
2022/09/06 03:40:50;;;;;;;;;8.00;7.33;;;;;19.20;77.97;101072.88;5035699;28;45414;-77
2022/09/06 03:43:17;;;;;;;;;8.00;8.00;;;;;19.17;77.86;101068.75;5035710;28;45187;-78
2022/09/06 03:45:47;;;;;;;;;10.67;10.00;;;;;19.10;78.39;101077.94;5035995;28;45166;-77
2022/09/06 03:48:14;;;;;;;;;8.33;7.33;;;;;19.10;78.28;101084.16;5034163;28;47022;-78
2022/09/06 03:50:44;;;;;;;;;7.33;7.33;;;;;19.04;78.68;101083.13;5033711;28;48013;-78
2022/09/06 03:53:10;;;;;;;;;7.67;7.67;;;;;18.99;78.82;101083.00;5037915;28;45345;-78
2022/09/06 03:55:35;;;;;;;;;9.33;9.33;;;;;19.07;79.09;101089.13;5038829;28;45334;-78
2022/09/06 03:58:00;;;;;;;;;8.33;8.33;;;;;19.04;78.87;101087.72;5037171;28;47204;-78
2022/09/06 04:00:26;;;;;;;;;9.00;9.00;;;;;19.02;79.20;101092.50;5038613;28;45710;-78
2022/09/06 04:02:51;;;;;;;;;9.00;9.00;;;;;19.02;79.25;101081.72;5038708;28;45329;-78
2022/09/06 04:05:16;;;;;;;;;10.00;8.00;;;;;19.02;79.20;101084.41;5037167;28;45334;-78
2022/09/06 04:07:42;;;;;;;;;7.33;7.00;;;;;19.07;79.38;101084.59;5038691;28;45270;-78
2022/09/06 04:10:08;;;;;;;;;9.00;9.00;;;;;19.03;79.10;101088.75;5038353;28;46302;-78
2022/09/06 04:12:33;;;;;;;;;10.00;9.00;;;;;19.00;79.04;101090.03;5037141;28;45355;-78
2022/09/06 04:14:59;;;;;;;;;7.00;6.00;;;;;19.05;78.80;101097.44;5037450;27;45843;-77
2022/09/06 04:17:24;;;;;;;;;8.67;8.67;;;;;19.07;78.93;101092.66;5038343;28;45296;-78
2022/09/06 04:19:49;;;;;;;;;9.00;9.00;;;;;19.05;78.58;101087.50;5036896;28;47100;-78
2022/09/06 04:24:40;;;;;;;;;9.00;9.00;;;;;18.96;78.61;101093.38;5035927;28;67611;-78
2022/09/06 04:27:06;;;;;;;;;6.00;6.00;;;;;18.99;78.83;101107.25;5038651;28;45233;-77
2022/09/06 04:29:32;;;;;;;;;10.00;10.00;;;;;18.92;78.80;101101.09;5038796;28;45583;-78
2022/09/06 04:31:57;;;;;;;;;9.00;9.00;;;;;18.86;78.60;101102.78;5038883;28;45364;-78
2022/09/06 04:34:22;;;;;;;;;8.67;8.67;;;;;18.85;78.97;101116.50;5038718;28;45197;-77
2022/09/06 04:36:48;;;;;;;;;8.33;8.00;;;;;18.82;78.93;101114.25;5038544;28;45386;-78
2022/09/06 04:39:13;;;;;;;;;10.00;10.00;;;;;18.79;78.98;101110.94;5038616;28;45452;-77
2022/09/06 04:41:38;;;;;;;;;8.33;8.33;;;;;18.78;78.63;101122.75;5036825;28;45206;-77
2022/09/06 04:44:04;;;;;;;;;11.00;9.00;;;;;18.73;78.66;101119.88;5038007;28;45224;-78
2022/09/06 04:46:29;;;;;;;;;9.33;9.33;;;;;18.72;78.95;101122.78;5034468;28;45307;-78
2022/09/06 04:48:56;;;;;;;;;9.00;8.33;;;;;18.71;79.34;101123.84;5036388;28;47941;-78
2022/09/06 04:51:23;;;;;;;;;12.00;11.00;;;;;18.72;79.28;101147.03;5037614;28;45285;-78
2022/09/06 04:53:49;;;;;;;;;8.67;8.67;;;;;18.68;79.33;101157.41;5031901;28;45313;-77
2022/09/06 04:56:23;;;;;;;;;8.33;7.67;;;;;18.62;80.01;101147.53;5017789;28;45206;-77
2022/09/06 04:58:50;;;;;;;;;12.00;12.00;;;;;18.60;79.67;101138.84;5035431;28;47619;-77
2022/09/06 05:01:16;;;;;;;;;8.00;8.00;;;;;18.62;79.71;101139.44;5026673;28;45304;-78
2022/09/06 05:03:42;;;;;;;;;10.00;9.00;;;;;18.60;79.22;101144.22;5017432;28;45361;-78
2022/09/06 05:06:19;;;;;;;;;11.67;9.67;;;;;18.59;79.55;101145.25;5025261;28;46141;-77
2022/09/06 05:08:45;;;;;;;;;10.00;8.33;;;;;18.58;79.56;101146.31;5019371;28;47565;-78
2022/09/06 05:11:10;;;;;;;;;9.67;8.67;;;;;18.54;79.47;101135.97;5021857;28;45371;-78
2022/09/06 05:13:36;;;;;;;;;10.00;10.00;;;;;18.58;79.73;101151.69;5017575;28;45380;-77
2022/09/06 05:16:06;;;;;;;;;8.00;8.00;;;;;18.53;79.11;101153.16;5022999;28;45922;-78
2022/09/06 05:18:32;;;;;;;;;12.33;11.00;;;;;18.55;79.70;101164.53;5024632;28;45495;-78
2022/09/06 05:20:58;;;;;;;;;8.67;8.67;;;;;18.53;79.21;101163.91;5034732;28;45318;-77
2022/09/06 05:23:24;;;;;;;;;11.00;10.00;;;;;18.52;79.87;101158.75;5026691;28;45397;-77
2022/09/06 05:25:50;;;;;;;;;11.00;10.00;;;;;18.51;79.57;101157.13;5015915;28;46284;-77
2022/09/06 05:28:16;;;;;;;;;11.33;10.33;;;;;18.40;79.61;101143.31;5018167;28;45325;-78
2022/09/06 05:30:41;;;;;;;;;10.33;9.33;;;;;18.44;79.85;101149.09;5017663;28;45349;-78
2022/09/06 05:33:11;;;;;;;;;11.00;10.00;;;;;18.41;79.93;101150.34;5023491;28;45358;-78
2022/09/06 05:35:36;;;;;;;;;12.00;12.00;;;;;18.41;79.99;101152.22;5026316;28;45189;-78
2022/09/06 05:38:01;;;;;;;;;12.00;11.00;;;;;18.42;80.59;101157.38;5019404;28;45640;-78
2022/09/06 05:40:27;;;;;;;;;10.67;10.67;;;;;18.40;79.98;101158.63;5020930;28;45327;-78
2022/09/06 05:42:52;;;;;;;;;12.67;11.67;;;;;18.41;80.70;101163.78;5016445;28;45266;-78
2022/09/06 05:45:18;;;;;;;;;12.33;10.67;;;;;18.45;80.93;101164.19;5017365;28;45577;-78
2022/09/06 05:47:43;;;;;;;;;12.00;12.00;;;;;18.37;80.77;101150.97;5017208;28;45493;-78
2022/09/06 05:50:09;;;;;;;;;9.00;9.00;;;;;18.44;80.63;101159.88;5024039;28;45450;-78
2022/09/06 05:52:35;;;;;;;;;14.33;13.33;;;;;18.48;80.63;101161.06;5025407;28;45396;-78
2022/09/06 05:55:01;;;;;;;;;12.00;12.00;;;;;18.49;81.16;101160.03;5019667;28;45256;-79
2022/09/06 05:57:27;;;;;;;;;11.67;11.67;;;;;18.48;81.39;101154.84;5018195;28;46790;-78
2022/09/06 05:59:52;;;;;;;;;10.00;10.00;;;;;18.53;81.77;101157.72;5030228;28;45503;-77
2022/09/06 06:02:19;;;;;;;;;12.00;12.00;;;;;18.52;81.78;101156.06;5018701;28;45471;-78
2022/09/06 06:04:44;;;;;;;;;12.33;12.33;;;;;18.51;82.05;101149.03;5017700;28;45395;-78
2022/09/06 06:07:10;;;;;;;;;12.00;12.00;;;;;18.59;81.87;101156.03;5022784;28;47117;-78
2022/09/06 06:09:35;;;;;;;;;11.33;11.33;;;;;18.61;82.61;101148.53;5025286;28;45203;-78
2022/09/06 06:12:01;;;;;;;;;12.33;12.33;;;;;18.66;81.90;101164.88;5017925;28;45230;-78
2022/09/06 06:14:26;;;;;;;;;10.67;10.33;;;;;18.70;82.40;101149.94;5017238;28;45472;-78
2022/09/06 06:16:52;;;;;;;;;13.00;13.00;;;;;18.74;82.69;101145.75;5025800;28;45331;-78
2022/09/06 06:19:17;;;;;;;;;11.33;11.33;;;;;18.81;82.48;101151.09;5016855;28;45424;-75
2022/09/06 06:21:43;;;;;;;;;14.67;13.33;;;;;18.79;82.34;101139.72;5016516;28;45404;-77
2022/09/06 06:24:08;;;;;;;;;12.67;12.00;;;;;18.89;82.32;101140.03;5016689;28;45306;-77
2022/09/06 06:26:35;;;;;;;;;10.33;9.67;;;;;18.96;82.36;101141.84;5027149;28;47185;-77
2022/09/06 06:29:00;;;;;;;;;14.33;13.33;;;;;19.03;82.73;101153.38;5035062;28;45851;-77
2022/09/06 06:31:27;;;;;;;;;17.33;14.00;;;;;19.07;83.09;101141.16;5025070;28;45376;-77
2022/09/06 06:33:52;;;;;;;;;12.33;12.33;;;;;19.12;82.58;101138.63;5016420;28;45268;-77
2022/09/06 06:36:20;;;;;;;;;13.33;13.33;;;;;19.23;82.67;101139.78;5016025;28;45905;-77
2022/09/06 06:38:47;;;;;;;;;15.67;15.00;;;;;19.29;82.81;101130.81;5028919;28;45293;-77
2022/09/06 06:41:14;;;;;;;;;17.33;14.33;;;;;19.32;82.63;101128.69;5038349;28;45447;-76
2022/09/06 06:43:40;;;;;;;;;16.33;12.00;;;;;19.43;82.44;101134.16;5023365;28;45448;-76
2022/09/06 06:46:08;;;;;;;;;15.00;13.67;;;;;19.43;82.35;101123.38;5016016;28;46121;-77
2022/09/06 06:48:34;;;;;;;;;12.00;12.00;;;;;19.55;82.50;101134.22;5025920;28;45802;-76
2022/09/06 06:50:59;;;;;;;;;12.67;12.67;;;;;19.60;82.53;101132.75;5031830;28;45382;-77
2022/09/06 06:53:24;;;;;;;;;14.00;14.00;;;;;19.71;82.61;101125.75;5015637;28;46921;-77
2022/09/06 06:55:50;;;;;;;;;12.33;11.67;;;;;19.74;82.47;101125.31;5042243;28;47851;-77
2022/09/06 06:58:16;;;;;;;;;12.67;12.00;;;;;19.87;82.61;101129.75;5018934;28;45163;-77
2022/09/06 07:00:42;;;;;;;;;13.67;13.00;;;;;19.96;82.38;101131.03;5016313;28;45301;-77
2022/09/06 07:03:09;;;;;;;;;12.00;12.00;;;;;20.10;81.99;101128.19;5015816;28;45555;-77
2022/09/06 07:05:35;;;;;;;;;13.00;12.00;;;;;20.18;81.52;101119.78;5015907;28;46414;-77
2022/09/06 07:08:00;;;;;;;;;10.33;9.00;;;;;20.28;81.39;101130.84;5015770;28;45388;-77
2022/09/06 07:10:26;;;;;;;;;10.33;9.00;;;;;20.36;80.50;101126.19;5015878;28;45421;-78
2022/09/06 07:12:51;;;;;;;;;11.00;11.00;;;;;20.46;80.37;101128.31;5042099;28;46129;-78
2022/09/06 07:15:17;;;;;;;;;11.67;11.67;;;;;20.56;80.75;101113.19;5018993;28;46094;-76
2022/09/06 07:17:43;;;;;;;;;13.00;13.00;;;;;20.68;80.17;101110.50;5024158;28;45423;-76
2022/09/06 07:20:09;;;;;;;;;12.67;11.67;;;;;20.77;79.76;101116.38;5028221;28;45461;-76
2022/09/06 07:22:35;;;;;;;;;11.00;11.00;;;;;20.80;79.55;101101.59;5015805;28;45389;-76
2022/09/06 07:25:00;;;;;;;;;13.33;13.33;;;;;20.85;79.21;101098.16;5015494;28;45376;-76
2022/09/06 07:27:25;;;;;;;;;13.00;12.33;;;;;20.87;79.27;101094.19;5036368;28;45831;-76
2022/09/06 07:29:51;;;;;;;;;12.00;12.00;;;;;20.87;79.08;101087.97;5027754;28;45925;-76
2022/09/06 07:32:16;;;;;;;;;12.67;11.00;;;;;20.94;78.82;101086.00;5030996;28;46045;-76
2022/09/06 07:34:41;;;;;;;;;13.33;13.33;;;;;20.96;78.94;101086.59;5018486;28;45337;-77
2022/09/06 07:37:07;;;;;;;;;15.67;13.67;;;;;21.07;78.58;101090.31;5031332;28;45354;-77
2022/09/06 07:39:32;;;;;;;;;12.33;12.33;;;;;21.10;78.48;101092.56;5020733;28;45331;-77
2022/09/06 07:41:57;;;;;;;;;10.33;10.00;;;;;21.10;78.72;101092.56;5018641;28;45269;-78
2022/09/06 07:44:23;;;;;;;;;10.00;10.00;;;;;21.21;78.73;101106.28;5030315;28;46971;-77
2022/09/06 07:46:50;;;;;;;;;10.00;10.00;;;;;21.23;78.61;101104.19;5035283;28;45240;-77
2022/09/06 07:49:16;;;;;;;;;14.33;14.33;;;;;21.28;78.89;101094.28;5026165;28;45383;-77
2022/09/06 07:51:41;;;;;;;;;11.00;11.00;;;;;21.36;78.21;101098.50;5035263;28;46017;-78
2022/09/06 07:54:06;;;;;;;;;10.33;10.33;;;;;21.44;77.29;101100.88;5027321;28;45351;-77
2022/09/06 07:56:32;;;;;;;;;12.00;10.67;;;;;21.50;77.65;101114.47;5030443;28;45417;-77
2022/09/06 07:58:57;;;;;;;;;12.00;12.00;;;;;21.54;77.16;101115.63;5018435;28;45310;-77
2022/09/06 08:01:33;;;;;;;;;12.33;11.33;;;;;21.66;77.05;101123.72;5018161;28;45334;-77
2022/09/06 08:04:03;;;;;;;;;11.67;11.67;;;;;21.67;77.34;101122.66;5018365;28;45415;-77
2022/09/06 08:06:32;;;;;;;;;10.33;10.33;;;;;21.78;77.16;101132.66;5017965;28;45273;-77
2022/09/06 08:08:59;;;;;;;;;13.00;13.00;;;;;21.81;76.78;101134.88;5024045;28;45287;-77
2022/09/06 08:11:27;;;;;;;;;13.00;11.00;;;;;21.86;76.79;101141.44;5025339;27;45488;-77
2022/09/06 08:13:54;;;;;;;;;12.33;10.67;;;;;21.92;76.40;101135.06;5028509;28;47658;-77
2022/09/06 08:16:21;;;;;;;;;10.33;10.33;;;;;21.96;77.17;101138.94;5033273;28;45256;-78
2022/09/06 08:18:55;;;;;;;;;12.67;11.33;;;;;22.05;76.33;101147.47;5034122;28;45308;-77
2022/09/06 08:21:22;;;;;;;;;11.33;10.33;;;;;22.12;76.35;101150.84;5020395;28;45523;-78
2022/09/06 08:23:50;;;;;;;;;11.33;11.33;;;;;22.17;75.79;101139.31;5025649;28;47149;-77
2022/09/06 08:26:18;;;;;;;;;9.00;8.00;;;;;22.18;76.05;101140.97;5020817;28;45234;-79
2022/09/06 08:28:44;;;;;;;;;13.00;10.00;;;;;22.29;75.91;101148.19;5018104;28;45330;-78
2022/09/06 08:31:11;;;;;;;;;11.67;10.00;;;;;22.27;75.52;101142.19;5026889;28;46387;-78
2022/09/06 08:33:38;;;;;;;;;11.33;10.00;;;;;22.40;75.37;101157.31;5017753;28;45524;-79
2022/09/06 08:36:04;;;;;;;;;12.00;11.00;;;;;22.45;74.84;101149.28;5028399;28;45760;-79
2022/09/06 08:38:30;;;;;;;;;12.67;12.67;;;;;22.49;74.85;101149.63;5018271;28;45340;-75
2022/09/06 08:41:07;;;;;;;;;11.33;11.33;;;;;22.50;74.81;101132.28;5029704;28;45533;-78
2022/09/06 08:43:33;;;;;;;;;11.67;11.67;;;;;22.60;74.51;101130.84;5030506;28;45527;-78
2022/09/06 08:45:59;;;;;;;;;9.00;9.00;;;;;22.63;74.60;101125.75;5015287;28;45321;-77
2022/09/06 08:48:30;;;;;;;;;10.33;10.33;;;;;22.72;74.25;101131.59;5016487;28;45366;-78
2022/09/06 08:51:28;;;;;;;;;11.00;11.00;;;;;22.78;74.30;101124.38;5028946;28;45654;-77
2022/09/06 08:54:03;;;;;;;;;11.33;10.67;;;;;22.84;73.06;101128.81;5040343;27;46567;-78
2022/09/06 08:56:40;;;;;;;;;7.67;7.33;;;;;22.89;72.77;101118.03;5016583;28;45384;-78
2022/09/06 08:59:12;;;;;;;;;11.00;10.67;;;;;22.98;72.26;101121.13;5017194;28;45309;-79
2022/09/06 09:01:55;;;;;;;;;11.33;10.33;;;;;23.03;72.56;101110.38;5032822;28;47309;-78
2022/09/06 09:04:25;;;;;;;;;8.33;8.33;;;;;23.10;71.99;101098.53;5029747;28;45550;-78
2022/09/06 09:06:56;;;;;;;;;9.00;9.00;;;;;23.19;71.40;101114.13;5022569;28;45370;-80
2022/09/06 09:09:22;;;;;;;;;8.00;8.00;;;;;23.25;70.82;101108.78;5029203;28;45561;-78
2022/09/06 09:11:50;;;;;;;;;8.00;8.00;;;;;23.30;70.94;101106.94;5020666;28;45345;-78
2022/09/06 09:14:25;;;;;;;;;7.00;6.33;;;;;23.37;69.91;101109.47;5029589;28;46346;-78
2022/09/06 09:17:02;;;;;;;;;9.67;8.67;;;;;23.38;69.62;101104.91;5032191;28;45341;-78
2022/09/06 09:19:30;;;;;;;;;7.67;7.67;;;;;23.39;69.21;101101.09;5040960;28;45389;-80
2022/09/06 09:21:56;;;;;;;;;7.00;7.00;;;;;23.47;69.21;101108.81;5024099;28;45633;-82
2022/09/06 09:24:23;;;;;;;;;6.67;6.67;;;;;23.51;68.42;101104.50;5027356;27;48496;-78
2022/09/06 09:26:53;;;;;;;;;8.33;6.33;;;;;23.57;68.34;101095.38;5033157;28;45371;-77
2022/09/06 09:29:19;;;;;;;;;7.00;7.00;;;;;23.60;66.32;101102.16;5019792;28;45406;-77
2022/09/06 09:31:48;;;;;;;;;5.67;5.67;;;;;23.64;66.57;101100.59;5016971;28;45737;-76
2022/09/06 09:34:26;;;;;;;;;6.33;6.33;;;;;23.75;65.63;101125.94;5017976;28;46805;-77
2022/09/06 09:37:22;;;;;;;;;6.33;6.33;;;;;23.77;65.02;101125.69;5036168;28;45321;-80
2022/09/06 09:39:51;;;;;;;;;6.33;6.33;;;;;23.89;65.71;101126.38;5029422;28;45331;-78
2022/09/06 09:42:29;;;;;;;;;4.67;4.67;;;;;23.97;64.60;101133.22;5017063;28;46068;-77
2022/09/06 09:44:56;;;;;;;;;6.67;5.67;;;;;24.07;63.80;101132.53;5035971;28;48488;-78
2022/09/06 09:47:30;;;;;;;;;6.33;6.33;;;;;24.16;63.27;101133.72;5020144;28;45413;-78
2022/09/06 09:49:56;;;;;;;;;6.67;5.00;;;;;24.24;62.31;101139.78;5029707;28;45448;-78
2022/09/06 09:52:26;;;;;;;;;5.67;5.67;;;;;24.31;63.23;101138.50;5033102;28;46949;-77
2022/09/06 09:54:54;;;;;;;;;7.00;7.00;;;;;24.38;63.06;101135.53;5031782;28;45637;-76
2022/09/06 09:57:21;;;;;;;;;7.67;7.67;;;;;24.50;62.99;101131.81;5016952;28;45410;-78
2022/09/06 09:59:56;;;;;;;;;4.67;4.33;;;;;24.56;61.65;101126.19;5023196;28;45470;-76
2022/09/06 10:02:38;;;;;;;;;6.00;5.33;;;;;24.76;61.31;101122.00;5021794;28;47198;-76
2022/09/06 10:05:14;;;;;;;;;6.00;6.00;;;;;25.09;60.64;101127.38;5015952;28;45498;-77
2022/09/06 10:07:47;;;;;;;;;5.00;5.00;;;;;25.34;60.24;101113.09;5025620;28;45511;-78
2022/09/06 10:10:23;;;;;;;;;6.00;6.00;;;;;25.62;59.25;101118.38;5016935;28;45196;-79
2022/09/06 10:13:18;;;;;;;;;6.00;6.00;;;;;25.92;58.15;101121.47;5017780;28;45279;-79
2022/09/06 10:15:44;;;;;;;;;7.00;7.00;;;;;26.17;57.49;101119.84;5017801;28;45470;-81
2022/09/06 10:18:30;;;;;;;;;10.67;6.00;;;;;26.40;57.33;101112.28;5035245;28;45261;-80
2022/09/06 10:21:09;;;;;;;;;6.33;4.67;;;;;26.72;56.34;101114.69;5016671;28;45534;-78
2022/09/06 10:23:47;;;;;;;;;8.00;6.67;;;;;26.98;55.30;101113.84;5025841;28;45472;-76
2022/09/06 10:26:41;;;;;;;;;6.00;6.00;;;;;27.34;53.38;101108.28;5039716;28;48475;-77
2022/09/06 10:29:10;;;;;;;;;4.67;4.33;;;;;27.56;51.86;101092.63;5025422;28;45286;-77
2022/09/06 10:31:48;;;;;;;;;5.00;5.00;;;;;27.70;51.29;101101.00;5017342;28;45550;-79
2022/09/06 10:34:41;;;;;;;;;5.00;5.00;;;;;27.93;51.64;101095.97;5027663;28;46309;-79
2022/09/06 10:37:20;;;;;;;;;5.00;5.00;;;;;28.18;51.47;101085.94;5027747;28;45491;-77
2022/09/06 10:39:54;;;;;;;;;5.00;5.00;;;;;28.41;51.47;101087.16;5028665;28;45305;-76
2022/09/06 10:42:22;;;;;;;;;4.33;4.33;;;;;28.61;49.53;101077.09;5024566;28;45372;-78
2022/09/06 10:45:07;;;;;;;;;3.00;3.00;;;;;28.81;47.81;101069.78;5032986;28;47206;-77
2022/09/06 10:48:07;;;;;;;;;3.00;3.00;;;;;28.99;47.30;101068.22;5024474;28;46191;-77
2022/09/06 10:50:33;;;;;;;;;4.00;3.00;;;;;29.00;45.65;101064.38;5033099;28;45419;-80
2022/09/06 10:53:09;;;;;;;;;2.00;2.00;;;;;28.98;45.82;101055.66;5021061;28;45410;-78
2022/09/06 10:55:39;;;;;;;;;3.67;3.67;;;;;29.16;45.08;101056.81;5030773;28;46153;-77
2022/09/06 10:58:05;;;;;;;;;6.00;3.00;;;;;29.30;46.30;101051.41;5018194;28;45708;-77
2022/09/06 11:00:45;;;;;;;;;2.75;2.75;;;;;29.32;45.66;101037.44;5016249;28;45465;-78
2022/09/06 11:03:34;;;;;;;;;3.00;3.00;;;;;29.41;46.45;101038.41;5026430;28;45388;-77
2022/09/06 11:06:07;;;;;;;;;4.67;4.67;;;;;29.45;45.57;101033.16;5024393;28;46033;-77
2022/09/06 11:09:01;;;;;;;;;3.67;3.67;;;;;29.44;45.24;101040.56;5025712;28;45897;-78
2022/09/06 11:11:49;;;;;;;;;3.00;3.00;;;;;29.38;42.25;101036.25;5024928;27;45416;-79
2022/09/06 11:14:17;;;;;;;;;3.67;3.00;;;;;29.25;43.49;101029.63;5034728;28;45752;-77
2022/09/06 11:16:56;;;;;;;;;3.25;3.25;;;;;29.12;44.09;101028.44;5025013;28;45456;-77
2022/09/06 11:19:51;;;;;;;;;3.67;3.67;;;;;29.07;44.60;101029.31;5026233;28;46154;-77
2022/09/06 11:22:34;;;;;;;;;4.33;4.33;;;;;29.25;44.08;101029.63;5018951;28;45270;-78
2022/09/06 11:25:14;;;;;;;;;5.00;4.67;;;;;29.45;43.11;101020.28;5029560;28;45360;-77
2022/09/06 11:27:44;;;;;;;;;4.33;3.33;;;;;29.52;43.26;101003.50;5034132;28;46488;-76
2022/09/06 11:30:15;;;;;;;;;4.00;4.00;;;;;29.66;43.34;101003.56;5025421;28;47256;-81
2022/09/06 11:32:47;;;;;;;;;6.00;6.00;;;;;29.75;42.48;100998.25;5037880;28;45417;-80
2022/09/06 11:35:31;;;;;;;;;5.00;5.00;;;;;29.82;42.65;101008.81;5040312;28;45291;-79